sensor_id;sensor_type;location;lat;lon;timestamp;P1;durP1;ratioP1;P2;durP2;ratioP2
60292;SDS011;52402;52.670;6.750;2023-07-31T00:01:42;0.20;;;0.20;;
60292;SDS011;52402;52.670;6.750;2023-07-31T00:04:07;0.20;;;0.20;;
60292;SDS011;52402;52.670;6.750;2023-07-31T00:06:33;0.30;;;0.30;;
60292;SDS011;52402;52.670;6.750;2023-07-31T00:08:59;0.20;;;0.20;;
60292;SDS011;52402;52.670;6.750;2023-07-31T00:11:25;0.20;;;0.20;;
60292;SDS011;52402;52.670;6.750;2023-07-31T00:13:50;0.30;;;0.30;;
60292;SDS011;52402;52.670;6.750;2023-07-31T00:16:17;0.30;;;0.30;;
60292;SDS011;52402;52.670;6.750;2023-07-31T00:18:43;0.20;;;0.20;;
60292;SDS011;52402;52.670;6.750;2023-07-31T00:21:09;0.30;;;0.30;;
60292;SDS011;52402;52.670;6.750;2023-07-31T00:23:34;0.30;;;0.30;;
60292;SDS011;52402;52.670;6.750;2023-07-31T00:26:00;0.30;;;0.30;;
60292;SDS011;52402;52.670;6.750;2023-07-31T00:28:26;0.30;;;0.30;;
60292;SDS011;52402;52.670;6.750;2023-07-31T00:30:52;0.30;;;0.30;;
60292;SDS011;52402;52.670;6.750;2023-07-31T00:33:18;0.20;;;0.20;;
60292;SDS011;52402;52.670;6.750;2023-07-31T00:35:43;0.30;;;0.30;;
60292;SDS011;52402;52.670;6.750;2023-07-31T00:38:09;0.30;;;0.30;;
60292;SDS011;52402;52.670;6.750;2023-07-31T00:40:35;0.20;;;0.20;;
60292;SDS011;52402;52.670;6.750;2023-07-31T00:43:02;0.30;;;0.30;;
60292;SDS011;52402;52.670;6.750;2023-07-31T00:45:28;0.20;;;0.20;;
60292;SDS011;52402;52.670;6.750;2023-07-31T00:47:54;0.30;;;0.30;;
60292;SDS011;52402;52.670;6.750;2023-07-31T00:50:20;0.28;;;0.28;;
60292;SDS011;52402;52.670;6.750;2023-07-31T00:52:49;0.30;;;0.30;;
60292;SDS011;52402;52.670;6.750;2023-07-31T00:55:15;0.20;;;0.20;;
60292;SDS011;52402;52.670;6.750;2023-07-31T00:57:41;0.20;;;0.20;;
60292;SDS011;52402;52.670;6.750;2023-07-31T01:00:08;0.20;;;0.20;;
60292;SDS011;52402;52.670;6.750;2023-07-31T01:02:34;0.22;;;0.22;;
60292;SDS011;52402;52.670;6.750;2023-07-31T01:05:01;0.30;;;0.30;;
60292;SDS011;52402;52.670;6.750;2023-07-31T01:07:34;0.20;;;0.20;;
60292;SDS011;52402;52.670;6.750;2023-07-31T01:10:25;0.20;;;0.20;;
60292;SDS011;52402;52.670;6.750;2023-07-31T01:12:56;0.20;;;0.20;;
60292;SDS011;52402;52.670;6.750;2023-07-31T01:15:23;0.30;;;0.30;;
60292;SDS011;52402;52.670;6.750;2023-07-31T01:17:48;0.20;;;0.20;;
60292;SDS011;52402;52.670;6.750;2023-07-31T01:20:18;0.20;;;0.20;;
60292;SDS011;52402;52.670;6.750;2023-07-31T01:22:54;0.30;;;0.30;;
60292;SDS011;52402;52.670;6.750;2023-07-31T01:28:38;0.28;;;0.28;;
60292;SDS011;52402;52.670;6.750;2023-07-31T01:31:26;0.28;;;0.28;;
60292;SDS011;52402;52.670;6.750;2023-07-31T01:33:54;0.20;;;0.20;;
60292;SDS011;52402;52.670;6.750;2023-07-31T01:36:24;0.30;;;0.30;;
60292;SDS011;52402;52.670;6.750;2023-07-31T01:38:50;0.30;;;0.30;;
60292;SDS011;52402;52.670;6.750;2023-07-31T01:41:16;0.20;;;0.20;;
60292;SDS011;52402;52.670;6.750;2023-07-31T01:43:43;0.28;;;0.28;;
60292;SDS011;52402;52.670;6.750;2023-07-31T01:46:09;0.20;;;0.20;;
60292;SDS011;52402;52.670;6.750;2023-07-31T01:48:35;0.20;;;0.20;;
60292;SDS011;52402;52.670;6.750;2023-07-31T01:51:02;0.30;;;0.30;;
60292;SDS011;52402;52.670;6.750;2023-07-31T01:53:28;0.30;;;0.30;;
60292;SDS011;52402;52.670;6.750;2023-07-31T01:55:55;0.30;;;0.30;;
60292;SDS011;52402;52.670;6.750;2023-07-31T01:58:20;0.30;;;0.30;;
60292;SDS011;52402;52.670;6.750;2023-07-31T02:00:46;0.30;;;0.30;;
60292;SDS011;52402;52.670;6.750;2023-07-31T02:03:12;0.30;;;0.30;;
60292;SDS011;52402;52.670;6.750;2023-07-31T02:05:43;0.20;;;0.20;;
60292;SDS011;52402;52.670;6.750;2023-07-31T02:08:09;0.30;;;0.30;;
60292;SDS011;52402;52.670;6.750;2023-07-31T02:10:35;0.20;;;0.20;;
60292;SDS011;52402;52.670;6.750;2023-07-31T02:13:01;0.30;;;0.30;;
60292;SDS011;52402;52.670;6.750;2023-07-31T02:15:29;0.22;;;0.22;;
60292;SDS011;52402;52.670;6.750;2023-07-31T02:17:55;0.28;;;0.28;;
60292;SDS011;52402;52.670;6.750;2023-07-31T02:20:20;0.20;;;0.20;;
60292;SDS011;52402;52.670;6.750;2023-07-31T02:22:46;0.20;;;0.20;;
60292;SDS011;52402;52.670;6.750;2023-07-31T02:25:12;0.20;;;0.20;;
60292;SDS011;52402;52.670;6.750;2023-07-31T02:27:37;0.20;;;0.20;;
60292;SDS011;52402;52.670;6.750;2023-07-31T02:30:03;0.28;;;0.28;;
60292;SDS011;52402;52.670;6.750;2023-07-31T02:32:29;0.30;;;0.30;;
60292;SDS011;52402;52.670;6.750;2023-07-31T02:34:54;0.20;;;0.20;;
60292;SDS011;52402;52.670;6.750;2023-07-31T02:37:20;0.30;;;0.30;;
60292;SDS011;52402;52.670;6.750;2023-07-31T02:39:46;0.30;;;0.30;;
60292;SDS011;52402;52.670;6.750;2023-07-31T02:42:12;0.30;;;0.30;;
60292;SDS011;52402;52.670;6.750;2023-07-31T02:44:38;0.20;;;0.20;;
60292;SDS011;52402;52.670;6.750;2023-07-31T02:47:04;0.20;;;0.20;;
60292;SDS011;52402;52.670;6.750;2023-07-31T02:49:30;0.30;;;0.30;;
60292;SDS011;52402;52.670;6.750;2023-07-31T02:51:55;0.20;;;0.20;;
60292;SDS011;52402;52.670;6.750;2023-07-31T02:54:22;0.20;;;0.20;;
60292;SDS011;52402;52.670;6.750;2023-07-31T02:56:48;0.28;;;0.28;;
60292;SDS011;52402;52.670;6.750;2023-07-31T02:59:14;0.28;;;0.28;;
60292;SDS011;52402;52.670;6.750;2023-07-31T03:01:39;0.30;;;0.30;;
60292;SDS011;52402;52.670;6.750;2023-07-31T03:04:05;0.30;;;0.30;;
60292;SDS011;52402;52.670;6.750;2023-07-31T03:06:31;0.20;;;0.20;;
60292;SDS011;52402;52.670;6.750;2023-07-31T03:08:56;0.20;;;0.20;;
60292;SDS011;52402;52.670;6.750;2023-07-31T03:11:22;0.30;;;0.30;;
60292;SDS011;52402;52.670;6.750;2023-07-31T03:13:48;0.30;;;0.30;;
60292;SDS011;52402;52.670;6.750;2023-07-31T03:16:13;0.20;;;0.20;;
60292;SDS011;52402;52.670;6.750;2023-07-31T03:18:39;0.30;;;0.30;;
60292;SDS011;52402;52.670;6.750;2023-07-31T03:21:04;0.20;;;0.20;;
60292;SDS011;52402;52.670;6.750;2023-07-31T03:23:30;0.30;;;0.30;;
60292;SDS011;52402;52.670;6.750;2023-07-31T03:25:56;0.20;;;0.20;;
60292;SDS011;52402;52.670;6.750;2023-07-31T03:28:27;0.20;;;0.20;;
60292;SDS011;52402;52.670;6.750;2023-07-31T03:30:53;0.30;;;0.30;;
60292;SDS011;52402;52.670;6.750;2023-07-31T03:33:19;0.30;;;0.30;;
60292;SDS011;52402;52.670;6.750;2023-07-31T03:35:45;0.30;;;0.30;;
60292;SDS011;52402;52.670;6.750;2023-07-31T03:38:11;0.20;;;0.20;;
60292;SDS011;52402;52.670;6.750;2023-07-31T03:40:36;0.30;;;0.30;;
60292;SDS011;52402;52.670;6.750;2023-07-31T03:43:02;0.20;;;0.20;;
60292;SDS011;52402;52.670;6.750;2023-07-31T03:45:27;0.30;;;0.30;;
60292;SDS011;52402;52.670;6.750;2023-07-31T03:47:53;0.30;;;0.30;;
60292;SDS011;52402;52.670;6.750;2023-07-31T03:50:20;0.30;;;0.30;;
60292;SDS011;52402;52.670;6.750;2023-07-31T03:52:46;0.30;;;0.30;;
60292;SDS011;52402;52.670;6.750;2023-07-31T03:55:12;0.30;;;0.30;;
60292;SDS011;52402;52.670;6.750;2023-07-31T03:57:37;0.30;;;0.30;;
60292;SDS011;52402;52.670;6.750;2023-07-31T04:00:03;0.30;;;0.30;;
60292;SDS011;52402;52.670;6.750;2023-07-31T04:02:29;0.30;;;0.30;;
60292;SDS011;52402;52.670;6.750;2023-07-31T04:04:55;0.25;;;0.25;;
60292;SDS011;52402;52.670;6.750;2023-07-31T04:07:20;0.30;;;0.30;;
60292;SDS011;52402;52.670;6.750;2023-07-31T04:09:46;0.20;;;0.20;;
60292;SDS011;52402;52.670;6.750;2023-07-31T04:12:12;0.40;;;0.40;;
60292;SDS011;52402;52.670;6.750;2023-07-31T04:14:37;0.30;;;0.30;;
60292;SDS011;52402;52.670;6.750;2023-07-31T04:17:03;0.30;;;0.30;;
60292;SDS011;52402;52.670;6.750;2023-07-31T04:19:29;0.40;;;0.40;;
60292;SDS011;52402;52.670;6.750;2023-07-31T04:21:54;0.28;;;0.28;;
60292;SDS011;52402;52.670;6.750;2023-07-31T04:24:20;0.30;;;0.30;;
60292;SDS011;52402;52.670;6.750;2023-07-31T04:26:52;0.30;;;0.30;;
60292;SDS011;52402;52.670;6.750;2023-07-31T04:29:18;0.30;;;0.30;;
60292;SDS011;52402;52.670;6.750;2023-07-31T04:31:44;0.30;;;0.30;;
60292;SDS011;52402;52.670;6.750;2023-07-31T04:34:10;0.20;;;0.20;;
60292;SDS011;52402;52.670;6.750;2023-07-31T04:36:36;0.40;;;0.40;;
60292;SDS011;52402;52.670;6.750;2023-07-31T04:39:02;0.30;;;0.30;;
60292;SDS011;52402;52.670;6.750;2023-07-31T04:41:28;0.30;;;0.30;;
60292;SDS011;52402;52.670;6.750;2023-07-31T04:43:53;0.30;;;0.30;;
60292;SDS011;52402;52.670;6.750;2023-07-31T04:46:19;0.30;;;0.30;;
60292;SDS011;52402;52.670;6.750;2023-07-31T04:48:44;0.30;;;0.30;;
60292;SDS011;52402;52.670;6.750;2023-07-31T04:51:10;0.30;;;0.30;;
60292;SDS011;52402;52.670;6.750;2023-07-31T04:53:36;0.30;;;0.30;;
60292;SDS011;52402;52.670;6.750;2023-07-31T04:56:02;0.30;;;0.30;;
60292;SDS011;52402;52.670;6.750;2023-07-31T04:58:28;0.30;;;0.30;;
60292;SDS011;52402;52.670;6.750;2023-07-31T05:00:53;0.30;;;0.30;;
60292;SDS011;52402;52.670;6.750;2023-07-31T05:03:19;0.20;;;0.20;;
60292;SDS011;52402;52.670;6.750;2023-07-31T05:05:44;0.25;;;0.25;;
60292;SDS011;52402;52.670;6.750;2023-07-31T05:08:10;0.30;;;0.30;;
60292;SDS011;52402;52.670;6.750;2023-07-31T05:10:36;0.22;;;0.22;;
60292;SDS011;52402;52.670;6.750;2023-07-31T05:13:01;0.30;;;0.30;;
60292;SDS011;52402;52.670;6.750;2023-07-31T05:15:27;0.30;;;0.30;;
60292;SDS011;52402;52.670;6.750;2023-07-31T05:17:53;0.30;;;0.30;;
60292;SDS011;52402;52.670;6.750;2023-07-31T05:20:19;0.30;;;0.30;;
60292;SDS011;52402;52.670;6.750;2023-07-31T05:22:45;0.30;;;0.30;;
60292;SDS011;52402;52.670;6.750;2023-07-31T05:25:11;0.30;;;0.30;;
60292;SDS011;52402;52.670;6.750;2023-07-31T05:27:36;0.20;;;0.20;;
60292;SDS011;52402;52.670;6.750;2023-07-31T05:30:02;0.30;;;0.30;;
60292;SDS011;52402;52.670;6.750;2023-07-31T05:32:28;0.30;;;0.30;;
60292;SDS011;52402;52.670;6.750;2023-07-31T05:34:54;0.30;;;0.30;;
60292;SDS011;52402;52.670;6.750;2023-07-31T05:37:19;0.30;;;0.30;;
60292;SDS011;52402;52.670;6.750;2023-07-31T05:39:45;0.30;;;0.30;;
60292;SDS011;52402;52.670;6.750;2023-07-31T05:42:11;0.30;;;0.30;;
60292;SDS011;52402;52.670;6.750;2023-07-31T05:44:36;0.20;;;0.20;;
60292;SDS011;52402;52.670;6.750;2023-07-31T05:47:02;0.30;;;0.30;;
60292;SDS011;52402;52.670;6.750;2023-07-31T05:49:28;0.30;;;0.30;;
60292;SDS011;52402;52.670;6.750;2023-07-31T05:51:54;0.30;;;0.30;;
60292;SDS011;52402;52.670;6.750;2023-07-31T05:54:19;0.30;;;0.30;;
60292;SDS011;52402;52.670;6.750;2023-07-31T05:56:45;0.30;;;0.30;;
60292;SDS011;52402;52.670;6.750;2023-07-31T05:59:11;0.28;;;0.28;;
60292;SDS011;52402;52.670;6.750;2023-07-31T06:01:37;0.30;;;0.30;;
60292;SDS011;52402;52.670;6.750;2023-07-31T06:04:03;0.30;;;0.30;;
60292;SDS011;52402;52.670;6.750;2023-07-31T06:06:29;0.30;;;0.30;;
60292;SDS011;52402;52.670;6.750;2023-07-31T06:08:54;0.30;;;0.30;;
60292;SDS011;52402;52.670;6.750;2023-07-31T06:11:20;0.30;;;0.30;;
60292;SDS011;52402;52.670;6.750;2023-07-31T06:13:46;0.40;;;0.40;;
60292;SDS011;52402;52.670;6.750;2023-07-31T06:16:14;0.30;;;0.30;;
60292;SDS011;52402;52.670;6.750;2023-07-31T06:18:40;0.32;;;0.32;;
60292;SDS011;52402;52.670;6.750;2023-07-31T06:21:06;0.30;;;0.30;;
60292;SDS011;52402;52.670;6.750;2023-07-31T06:23:32;0.30;;;0.30;;
60292;SDS011;52402;52.670;6.750;2023-07-31T06:25:58;0.30;;;0.30;;
60292;SDS011;52402;52.670;6.750;2023-07-31T06:28:27;0.30;;;0.30;;
60292;SDS011;52402;52.670;6.750;2023-07-31T06:33:20;0.30;;;0.30;;
60292;SDS011;52402;52.670;6.750;2023-07-31T06:38:36;0.30;;;0.30;;
60292;SDS011;52402;52.670;6.750;2023-07-31T06:41:02;0.28;;;0.28;;
60292;SDS011;52402;52.670;6.750;2023-07-31T06:43:31;0.30;;;0.30;;
60292;SDS011;52402;52.670;6.750;2023-07-31T06:46:04;0.40;;;0.40;;
60292;SDS011;52402;52.670;6.750;2023-07-31T06:48:31;0.30;;;0.30;;
60292;SDS011;52402;52.670;6.750;2023-07-31T06:50:58;0.30;;;0.30;;
60292;SDS011;52402;52.670;6.750;2023-07-31T06:53:24;0.30;;;0.30;;
60292;SDS011;52402;52.670;6.750;2023-07-31T06:55:49;0.40;;;0.40;;
60292;SDS011;52402;52.670;6.750;2023-07-31T06:58:17;0.40;;;0.40;;
60292;SDS011;52402;52.670;6.750;2023-07-31T07:00:43;0.30;;;0.30;;
60292;SDS011;52402;52.670;6.750;2023-07-31T07:03:08;0.30;;;0.30;;
60292;SDS011;52402;52.670;6.750;2023-07-31T07:05:34;0.30;;;0.30;;
60292;SDS011;52402;52.670;6.750;2023-07-31T07:08:00;0.30;;;0.30;;
60292;SDS011;52402;52.670;6.750;2023-07-31T07:10:25;0.30;;;0.30;;
60292;SDS011;52402;52.670;6.750;2023-07-31T07:12:51;0.30;;;0.30;;
60292;SDS011;52402;52.670;6.750;2023-07-31T07:15:17;0.40;;;0.40;;
60292;SDS011;52402;52.670;6.750;2023-07-31T07:17:43;0.30;;;0.30;;
60292;SDS011;52402;52.670;6.750;2023-07-31T07:20:08;0.30;;;0.30;;
60292;SDS011;52402;52.670;6.750;2023-07-31T07:22:34;0.30;;;0.30;;
60292;SDS011;52402;52.670;6.750;2023-07-31T07:25:00;0.30;;;0.30;;
60292;SDS011;52402;52.670;6.750;2023-07-31T07:27:25;0.40;;;0.40;;
60292;SDS011;52402;52.670;6.750;2023-07-31T07:29:51;0.30;;;0.30;;
60292;SDS011;52402;52.670;6.750;2023-07-31T07:32:19;0.40;;;0.40;;
60292;SDS011;52402;52.670;6.750;2023-07-31T07:34:46;0.30;;;0.30;;
60292;SDS011;52402;52.670;6.750;2023-07-31T07:37:13;0.30;;;0.30;;
60292;SDS011;52402;52.670;6.750;2023-07-31T07:39:39;0.30;;;0.30;;
60292;SDS011;52402;52.670;6.750;2023-07-31T07:42:04;0.40;;;0.40;;
60292;SDS011;52402;52.670;6.750;2023-07-31T07:44:30;0.40;;;0.40;;
60292;SDS011;52402;52.670;6.750;2023-07-31T07:46:55;0.40;;;0.40;;
60292;SDS011;52402;52.670;6.750;2023-07-31T07:49:21;0.30;;;0.30;;
60292;SDS011;52402;52.670;6.750;2023-07-31T07:51:49;0.40;;;0.40;;
60292;SDS011;52402;52.670;6.750;2023-07-31T07:54:15;0.38;;;0.38;;
60292;SDS011;52402;52.670;6.750;2023-07-31T07:56:46;0.30;;;0.30;;
60292;SDS011;52402;52.670;6.750;2023-07-31T07:59:12;0.30;;;0.30;;
60292;SDS011;52402;52.670;6.750;2023-07-31T08:01:37;0.40;;;0.40;;
60292;SDS011;52402;52.670;6.750;2023-07-31T08:04:03;0.30;;;0.30;;
60292;SDS011;52402;52.670;6.750;2023-07-31T08:06:29;0.30;;;0.30;;
60292;SDS011;52402;52.670;6.750;2023-07-31T08:08:55;0.30;;;0.30;;
60292;SDS011;52402;52.670;6.750;2023-07-31T08:11:21;0.30;;;0.30;;
60292;SDS011;52402;52.670;6.750;2023-07-31T08:13:48;0.30;;;0.30;;
60292;SDS011;52402;52.670;6.750;2023-07-31T08:16:14;0.30;;;0.30;;
60292;SDS011;52402;52.670;6.750;2023-07-31T08:18:40;0.30;;;0.30;;
60292;SDS011;52402;52.670;6.750;2023-07-31T08:21:07;0.30;;;0.30;;
60292;SDS011;52402;52.670;6.750;2023-07-31T08:23:33;0.30;;;0.30;;
60292;SDS011;52402;52.670;6.750;2023-07-31T08:25:58;0.40;;;0.40;;
60292;SDS011;52402;52.670;6.750;2023-07-31T08:28:24;0.30;;;0.30;;
60292;SDS011;52402;52.670;6.750;2023-07-31T08:30:50;0.40;;;0.40;;
60292;SDS011;52402;52.670;6.750;2023-07-31T08:33:15;0.30;;;0.30;;
60292;SDS011;52402;52.670;6.750;2023-07-31T08:35:41;0.30;;;0.30;;
60292;SDS011;52402;52.670;6.750;2023-07-31T08:38:07;0.40;;;0.40;;
60292;SDS011;52402;52.670;6.750;2023-07-31T08:40:35;0.30;;;0.30;;
60292;SDS011;52402;52.670;6.750;2023-07-31T08:43:02;0.30;;;0.30;;
60292;SDS011;52402;52.670;6.750;2023-07-31T08:45:28;0.35;;;0.35;;
60292;SDS011;52402;52.670;6.750;2023-07-31T08:47:57;0.30;;;0.30;;
60292;SDS011;52402;52.670;6.750;2023-07-31T08:50:24;0.40;;;0.40;;
60292;SDS011;52402;52.670;6.750;2023-07-31T08:52:51;0.40;;;0.40;;
60292;SDS011;52402;52.670;6.750;2023-07-31T08:55:17;0.30;;;0.30;;
60292;SDS011;52402;52.670;6.750;2023-07-31T08:57:50;0.32;;;0.32;;
60292;SDS011;52402;52.670;6.750;2023-07-31T09:00:17;0.47;;;0.47;;
60292;SDS011;52402;52.670;6.750;2023-07-31T09:02:46;0.30;;;0.30;;
60292;SDS011;52402;52.670;6.750;2023-07-31T09:05:17;0.30;;;0.30;;
60292;SDS011;52402;52.670;6.750;2023-07-31T09:07:45;0.30;;;0.30;;
60292;SDS011;52402;52.670;6.750;2023-07-31T09:10:12;0.40;;;0.40;;
60292;SDS011;52402;52.670;6.750;2023-07-31T09:12:38;0.30;;;0.30;;
60292;SDS011;52402;52.670;6.750;2023-07-31T09:15:04;0.35;;;0.35;;
60292;SDS011;52402;52.670;6.750;2023-07-31T09:17:31;0.30;;;0.30;;
60292;SDS011;52402;52.670;6.750;2023-07-31T09:20:13;0.40;;;0.40;;
60292;SDS011;52402;52.670;6.750;2023-07-31T09:22:46;0.32;;;0.32;;
60292;SDS011;52402;52.670;6.750;2023-07-31T09:25:14;0.30;;;0.30;;
60292;SDS011;52402;52.670;6.750;2023-07-31T09:28:01;0.30;;;0.30;;
60292;SDS011;52402;52.670;6.750;2023-07-31T09:30:28;0.30;;;0.30;;
60292;SDS011;52402;52.670;6.750;2023-07-31T09:33:02;0.40;;;0.40;;
60292;SDS011;52402;52.670;6.750;2023-07-31T09:35:32;0.35;;;0.35;;
60292;SDS011;52402;52.670;6.750;2023-07-31T09:38:06;0.35;;;0.35;;
60292;SDS011;52402;52.670;6.750;2023-07-31T09:40:34;0.30;;;0.30;;
60292;SDS011;52402;52.670;6.750;2023-07-31T09:43:05;0.30;;;0.30;;
60292;SDS011;52402;52.670;6.750;2023-07-31T09:45:36;0.40;;;0.40;;
60292;SDS011;52402;52.670;6.750;2023-07-31T09:48:03;0.40;;;0.40;;
60292;SDS011;52402;52.670;6.750;2023-07-31T09:50:36;0.40;;;0.40;;
60292;SDS011;52402;52.670;6.750;2023-07-31T09:53:04;0.40;;;0.40;;
60292;SDS011;52402;52.670;6.750;2023-07-31T09:55:30;0.30;;;0.30;;
60292;SDS011;52402;52.670;6.750;2023-07-31T09:57:59;0.30;;;0.30;;
60292;SDS011;52402;52.670;6.750;2023-07-31T10:00:28;0.40;;;0.40;;
60292;SDS011;52402;52.670;6.750;2023-07-31T10:02:58;0.40;;;0.40;;
60292;SDS011;52402;52.670;6.750;2023-07-31T10:05:27;0.30;;;0.30;;
60292;SDS011;52402;52.670;6.750;2023-07-31T10:08:00;0.40;;;0.40;;
60292;SDS011;52402;52.670;6.750;2023-07-31T10:10:25;0.40;;;0.40;;
60292;SDS011;52402;52.670;6.750;2023-07-31T10:12:53;0.40;;;0.40;;
60292;SDS011;52402;52.670;6.750;2023-07-31T10:15:20;0.40;;;0.40;;
60292;SDS011;52402;52.670;6.750;2023-07-31T10:17:47;0.40;;;0.40;;
60292;SDS011;52402;52.670;6.750;2023-07-31T10:20:14;0.40;;;0.40;;
60292;SDS011;52402;52.670;6.750;2023-07-31T10:22:41;0.50;;;0.50;;
60292;SDS011;52402;52.670;6.750;2023-07-31T10:25:08;0.30;;;0.30;;
60292;SDS011;52402;52.670;6.750;2023-07-31T10:27:41;0.40;;;0.40;;
60292;SDS011;52402;52.670;6.750;2023-07-31T10:30:12;0.40;;;0.40;;
60292;SDS011;52402;52.670;6.750;2023-07-31T10:32:40;0.35;;;0.35;;
60292;SDS011;52402;52.670;6.750;2023-07-31T10:35:08;0.30;;;0.30;;
60292;SDS011;52402;52.670;6.750;2023-07-31T10:37:38;0.40;;;0.40;;
60292;SDS011;52402;52.670;6.750;2023-07-31T10:40:06;0.35;;;0.35;;
60292;SDS011;52402;52.670;6.750;2023-07-31T10:42:38;0.30;;;0.30;;
60292;SDS011;52402;52.670;6.750;2023-07-31T10:45:13;0.32;;;0.32;;
60292;SDS011;52402;52.670;6.750;2023-07-31T10:47:44;0.35;;;0.35;;
60292;SDS011;52402;52.670;6.750;2023-07-31T10:50:19;0.45;;;0.45;;
60292;SDS011;52402;52.670;6.750;2023-07-31T10:52:47;0.40;;;0.40;;
60292;SDS011;52402;52.670;6.750;2023-07-31T10:55:16;0.40;;;0.40;;
60292;SDS011;52402;52.670;6.750;2023-07-31T10:58:05;0.40;;;0.40;;
60292;SDS011;52402;52.670;6.750;2023-07-31T11:03:12;0.50;;;0.50;;
60292;SDS011;52402;52.670;6.750;2023-07-31T11:05:46;0.40;;;0.40;;
60292;SDS011;52402;52.670;6.750;2023-07-31T11:11:04;0.35;;;0.35;;
60292;SDS011;52402;52.670;6.750;2023-07-31T11:13:32;0.40;;;0.40;;
60292;SDS011;52402;52.670;6.750;2023-07-31T11:16:14;0.50;;;0.50;;
60292;SDS011;52402;52.670;6.750;2023-07-31T11:18:40;0.40;;;0.40;;
60292;SDS011;52402;52.670;6.750;2023-07-31T11:21:08;0.40;;;0.40;;
60292;SDS011;52402;52.670;6.750;2023-07-31T11:23:37;0.50;;;0.50;;
60292;SDS011;52402;52.670;6.750;2023-07-31T11:26:04;0.40;;;0.40;;
60292;SDS011;52402;52.670;6.750;2023-07-31T11:28:34;0.35;;;0.35;;
60292;SDS011;52402;52.670;6.750;2023-07-31T11:31:00;0.40;;;0.40;;
60292;SDS011;52402;52.670;6.750;2023-07-31T11:33:27;0.47;;;0.47;;
60292;SDS011;52402;52.670;6.750;2023-07-31T11:35:52;0.45;;;0.45;;
60292;SDS011;52402;52.670;6.750;2023-07-31T11:38:25;0.40;;;0.40;;
60292;SDS011;52402;52.670;6.750;2023-07-31T11:43:30;0.40;;;0.40;;
60292;SDS011;52402;52.670;6.750;2023-07-31T11:45:57;0.50;;;0.50;;
60292;SDS011;52402;52.670;6.750;2023-07-31T11:48:27;0.50;;;0.50;;
60292;SDS011;52402;52.670;6.750;2023-07-31T11:50:57;0.50;;;0.50;;
60292;SDS011;52402;52.670;6.750;2023-07-31T11:53:25;0.40;;;0.40;;
60292;SDS011;52402;52.670;6.750;2023-07-31T11:56:13;0.50;;;0.50;;
60292;SDS011;52402;52.670;6.750;2023-07-31T11:58:41;0.50;;;0.50;;
60292;SDS011;52402;52.670;6.750;2023-07-31T12:01:10;0.47;;;0.47;;
60292;SDS011;52402;52.670;6.750;2023-07-31T12:03:36;0.52;;;0.52;;
60292;SDS011;52402;52.670;6.750;2023-07-31T12:06:03;0.50;;;0.50;;
60292;SDS011;52402;52.670;6.750;2023-07-31T12:08:28;0.50;;;0.50;;
60292;SDS011;52402;52.670;6.750;2023-07-31T12:10:54;0.50;;;0.50;;
60292;SDS011;52402;52.670;6.750;2023-07-31T12:13:31;0.50;;;0.50;;
60292;SDS011;52402;52.670;6.750;2023-07-31T12:16:02;0.50;;;0.50;;
60292;SDS011;52402;52.670;6.750;2023-07-31T12:18:40;0.47;;;0.47;;
60292;SDS011;52402;52.670;6.750;2023-07-31T12:21:06;0.40;;;0.40;;
60292;SDS011;52402;52.670;6.750;2023-07-31T12:23:33;0.40;;;0.40;;
60292;SDS011;52402;52.670;6.750;2023-07-31T12:26:04;0.47;;;0.47;;
60292;SDS011;52402;52.670;6.750;2023-07-31T12:28:35;0.40;;;0.40;;
60292;SDS011;52402;52.670;6.750;2023-07-31T12:31:03;0.40;;;0.40;;
60292;SDS011;52402;52.670;6.750;2023-07-31T12:33:30;0.50;;;0.50;;
60292;SDS011;52402;52.670;6.750;2023-07-31T12:35:57;0.50;;;0.50;;
60292;SDS011;52402;52.670;6.750;2023-07-31T12:38:25;0.47;;;0.47;;
60292;SDS011;52402;52.670;6.750;2023-07-31T12:40:51;0.40;;;0.40;;
60292;SDS011;52402;52.670;6.750;2023-07-31T12:43:16;0.40;;;0.40;;
60292;SDS011;52402;52.670;6.750;2023-07-31T12:45:42;0.50;;;0.50;;
60292;SDS011;52402;52.670;6.750;2023-07-31T12:48:08;0.40;;;0.40;;
60292;SDS011;52402;52.670;6.750;2023-07-31T12:50:34;0.40;;;0.40;;
60292;SDS011;52402;52.670;6.750;2023-07-31T12:53:02;0.45;;;0.45;;
60292;SDS011;52402;52.670;6.750;2023-07-31T12:55:34;0.40;;;0.40;;
60292;SDS011;52402;52.670;6.750;2023-07-31T12:58:01;0.40;;;0.40;;
60292;SDS011;52402;52.670;6.750;2023-07-31T13:00:27;0.50;;;0.50;;
60292;SDS011;52402;52.670;6.750;2023-07-31T13:03:05;0.40;;;0.40;;
60292;SDS011;52402;52.670;6.750;2023-07-31T13:05:33;0.40;;;0.40;;
60292;SDS011;52402;52.670;6.750;2023-07-31T13:08:01;0.50;;;0.50;;
60292;SDS011;52402;52.670;6.750;2023-07-31T13:10:32;0.40;;;0.40;;
60292;SDS011;52402;52.670;6.750;2023-07-31T13:12:58;0.40;;;0.40;;
60292;SDS011;52402;52.670;6.750;2023-07-31T13:15:23;0.50;;;0.50;;
60292;SDS011;52402;52.670;6.750;2023-07-31T13:17:49;0.30;;;0.30;;
60292;SDS011;52402;52.670;6.750;2023-07-31T13:20:15;0.35;;;0.35;;
60292;SDS011;52402;52.670;6.750;2023-07-31T13:22:43;0.50;;;0.50;;
60292;SDS011;52402;52.670;6.750;2023-07-31T13:25:09;0.40;;;0.40;;
60292;SDS011;52402;52.670;6.750;2023-07-31T13:27:35;0.40;;;0.40;;
60292;SDS011;52402;52.670;6.750;2023-07-31T13:30:01;0.50;;;0.50;;
60292;SDS011;52402;52.670;6.750;2023-07-31T13:32:27;0.40;;;0.40;;
60292;SDS011;52402;52.670;6.750;2023-07-31T13:34:53;0.40;;;0.40;;
60292;SDS011;52402;52.670;6.750;2023-07-31T13:37:18;0.47;;;0.47;;
60292;SDS011;52402;52.670;6.750;2023-07-31T13:39:44;0.40;;;0.40;;
60292;SDS011;52402;52.670;6.750;2023-07-31T13:42:10;0.52;;;0.52;;
60292;SDS011;52402;52.670;6.750;2023-07-31T13:44:40;0.43;;;0.43;;
60292;SDS011;52402;52.670;6.750;2023-07-31T13:49:33;0.40;;;0.40;;
60292;SDS011;52402;52.670;6.750;2023-07-31T13:52:00;0.50;;;0.50;;
60292;SDS011;52402;52.670;6.750;2023-07-31T13:54:26;0.40;;;0.40;;
60292;SDS011;52402;52.670;6.750;2023-07-31T13:56:52;0.40;;;0.40;;
60292;SDS011;52402;52.670;6.750;2023-07-31T13:59:18;0.40;;;0.40;;
60292;SDS011;52402;52.670;6.750;2023-07-31T14:01:44;0.50;;;0.50;;
60292;SDS011;52402;52.670;6.750;2023-07-31T14:04:10;0.40;;;0.40;;
60292;SDS011;52402;52.670;6.750;2023-07-31T14:06:39;0.60;;;0.60;;
60292;SDS011;52402;52.670;6.750;2023-07-31T14:09:04;0.50;;;0.50;;
60292;SDS011;52402;52.670;6.750;2023-07-31T14:11:31;0.50;;;0.50;;
60292;SDS011;52402;52.670;6.750;2023-07-31T14:13:56;0.60;;;0.60;;
60292;SDS011;52402;52.670;6.750;2023-07-31T14:16:23;0.50;;;0.50;;
60292;SDS011;52402;52.670;6.750;2023-07-31T14:18:49;0.50;;;0.50;;
60292;SDS011;52402;52.670;6.750;2023-07-31T14:21:14;0.50;;;0.50;;
60292;SDS011;52402;52.670;6.750;2023-07-31T14:23:40;0.40;;;0.40;;
60292;SDS011;52402;52.670;6.750;2023-07-31T14:26:06;0.40;;;0.40;;
60292;SDS011;52402;52.670;6.750;2023-07-31T14:28:32;0.40;;;0.40;;
60292;SDS011;52402;52.670;6.750;2023-07-31T14:30:58;0.40;;;0.40;;
60292;SDS011;52402;52.670;6.750;2023-07-31T14:33:24;0.50;;;0.50;;
60292;SDS011;52402;52.670;6.750;2023-07-31T14:35:50;0.50;;;0.50;;
60292;SDS011;52402;52.670;6.750;2023-07-31T14:38:15;0.50;;;0.50;;
60292;SDS011;52402;52.670;6.750;2023-07-31T14:40:41;0.40;;;0.40;;
60292;SDS011;52402;52.670;6.750;2023-07-31T14:43:07;0.40;;;0.40;;
60292;SDS011;52402;52.670;6.750;2023-07-31T14:45:32;0.40;;;0.40;;
60292;SDS011;52402;52.670;6.750;2023-07-31T14:47:58;0.50;;;0.50;;
60292;SDS011;52402;52.670;6.750;2023-07-31T14:50:25;0.40;;;0.40;;
60292;SDS011;52402;52.670;6.750;2023-07-31T14:52:50;0.50;;;0.50;;
60292;SDS011;52402;52.670;6.750;2023-07-31T14:55:18;0.45;;;0.45;;
60292;SDS011;52402;52.670;6.750;2023-07-31T14:57:44;0.50;;;0.50;;
60292;SDS011;52402;52.670;6.750;2023-07-31T15:00:10;0.40;;;0.40;;
60292;SDS011;52402;52.670;6.750;2023-07-31T15:02:39;0.50;;;0.50;;
60292;SDS011;52402;52.670;6.750;2023-07-31T15:05:06;0.50;;;0.50;;
60292;SDS011;52402;52.670;6.750;2023-07-31T15:07:32;0.50;;;0.50;;